createdAt,value
2019-02-25T20:41:06.515Z,9.23
2019-02-25T20:43:34.809Z,10.28
2019-02-25T20:46:05.726Z,9.40
2019-02-25T20:48:33.230Z,10.75
2019-02-25T20:51:02.174Z,9.58
2019-02-25T20:53:32.212Z,9.60
2019-02-25T20:56:01.647Z,10.35
2019-02-25T20:58:30.126Z,9.18
2019-02-25T21:00:58.608Z,8.90
2019-02-25T21:03:27.660Z,9.90
2019-02-25T21:05:56.186Z,9.70
2019-02-25T21:08:25.074Z,8.55
2019-02-25T21:10:53.554Z,9.93
2019-02-25T21:13:24.157Z,9.30
2019-02-25T21:15:52.470Z,9.50
2019-02-25T21:18:22.391Z,9.35
2019-02-25T21:20:51.515Z,8.60
2019-02-25T21:23:20.532Z,8.60
2019-02-25T21:25:48.838Z,9.58
2019-02-25T21:28:17.120Z,9.18
2019-02-25T21:30:46.203Z,8.68
2019-02-25T21:33:17.465Z,7.92
2019-02-25T21:35:45.793Z,8.15
2019-02-25T21:38:14.074Z,8.28
2019-02-25T21:40:43.944Z,8.15
2019-02-25T21:43:16.251Z,8.08
2019-02-25T21:45:46.104Z,7.53
2019-02-25T21:48:12.561Z,7.92
2019-02-25T21:50:42.613Z,7.95
2019-02-25T21:53:12.225Z,7.25
2019-02-25T21:55:40.753Z,7.47
2019-02-25T21:58:09.053Z,7.40
2019-02-25T22:00:40.227Z,7.83
2019-02-25T22:03:10.239Z,7.95
2019-02-25T22:05:37.591Z,7.12
2019-02-25T22:08:06.459Z,8.18
2019-02-25T22:10:37.578Z,7.75
2019-02-25T22:13:08.783Z,8.05
2019-02-25T22:15:36.314Z,8.03
2019-02-25T22:18:06.357Z,6.95
2019-02-25T22:20:37.683Z,7.67
2019-02-25T22:24:44.847Z,6.35
2019-02-25T22:27:14.153Z,7.78
2019-02-25T22:35:58.894Z,8.75
2019-02-25T22:38:27.431Z,8.63
2019-02-25T22:40:58.083Z,8.50
2019-02-25T22:43:26.330Z,8.75
2019-02-25T22:45:58.084Z,8.33
2019-02-25T22:48:25.248Z,7.90
2019-02-25T22:53:25.487Z,7.55
2019-02-25T22:55:55.911Z,7.42
2019-02-25T22:58:27.913Z,8.15
2019-02-25T23:01:01.272Z,7.25
2019-02-25T23:03:32.928Z,7.53
2019-02-25T23:06:02.943Z,7.60
2019-02-25T23:08:32.806Z,7.80
